createdAt,value
2018-07-05T00:00:18.295Z,26.30
2018-07-05T00:02:58.089Z,26.20
2018-07-05T00:05:37.842Z,26.20
2018-07-05T00:08:17.670Z,26.30
2018-07-05T00:10:57.423Z,26.20
2018-07-05T00:13:37.107Z,26.20
2018-07-05T00:16:16.820Z,26.20
2018-07-05T00:18:56.617Z,26.10
2018-07-05T00:21:36.415Z,26.10
2018-07-05T00:24:16.146Z,26.00
2018-07-05T00:26:55.834Z,26.00
2018-07-05T00:29:35.687Z,25.90
2018-07-05T00:32:15.578Z,25.90
2018-07-05T00:34:55.324Z,25.90
2018-07-05T00:37:34.971Z,25.90
2018-07-05T00:40:14.734Z,25.90
2018-07-05T00:42:54.572Z,25.90
2018-07-05T00:45:34.102Z,25.90
2018-07-05T00:48:13.848Z,25.90
2018-07-05T00:50:53.591Z,25.90
2018-07-05T00:53:33.327Z,25.90
2018-07-05T00:56:12.855Z,25.90
2018-07-05T00:58:53.074Z,25.90
2018-07-05T01:01:32.975Z,25.90
2018-07-05T01:04:12.782Z,25.80
2018-07-05T01:06:52.515Z,25.80
2018-07-05T01:09:32.387Z,25.80
2018-07-05T01:12:12.091Z,25.80
2018-07-05T01:14:51.927Z,25.70
2018-07-05T01:17:31.707Z,25.70
2018-07-05T01:20:11.456Z,25.70
2018-07-05T01:23:54.415Z,25.70
2018-07-05T01:26:34.115Z,25.70
2018-07-05T01:29:13.747Z,25.60
2018-07-05T01:31:53.533Z,25.60
2018-07-05T01:34:33.380Z,25.50
2018-07-05T01:37:13.146Z,25.60
2018-07-05T01:39:52.786Z,25.50
2018-07-05T01:42:32.709Z,25.50
2018-07-05T01:45:12.311Z,25.40
2018-07-05T01:47:51.998Z,25.40
2018-07-05T01:50:31.832Z,25.40
2018-07-05T01:53:11.455Z,25.40
2018-07-05T01:55:51.034Z,25.30
2018-07-05T01:58:30.603Z,25.30
2018-07-05T02:01:10.235Z,25.30
2018-07-05T02:03:50.035Z,25.20
2018-07-05T02:06:29.799Z,25.20
2018-07-05T02:09:09.440Z,25.20
2018-07-05T02:11:49.147Z,25.20
2018-07-05T02:14:29.167Z,25.20
2018-07-05T02:17:08.854Z,25.20
2018-07-05T02:19:48.638Z,25.20
2018-07-05T02:22:28.298Z,25.20
2018-07-05T02:25:07.999Z,25.20
2018-07-05T02:27:47.723Z,25.20
2018-07-05T02:30:27.414Z,25.10
2018-07-05T02:33:07.286Z,25.10
2018-07-05T02:35:47.298Z,25.10
2018-07-05T02:38:26.915Z,25.00
2018-07-05T02:41:06.446Z,25.00
2018-07-05T02:43:46.067Z,25.00
2018-07-05T02:46:25.691Z,25.00
2018-07-05T02:49:05.615Z,25.00
2018-07-05T02:51:45.315Z,24.90
2018-07-05T02:54:25.131Z,25.00
2018-07-05T02:57:04.602Z,24.90
2018-07-05T02:59:44.418Z,24.90
2018-07-05T03:02:24.132Z,24.90
2018-07-05T03:05:03.840Z,24.90
2018-07-05T03:07:43.422Z,24.90
2018-07-05T03:10:23.096Z,24.90
2018-07-05T03:13:02.760Z,24.90
2018-07-05T03:15:42.603Z,24.90
2018-07-05T03:18:22.299Z,24.90
2018-07-05T03:21:01.981Z,24.90
2018-07-05T03:23:42.096Z,24.90
2018-07-05T03:26:21.822Z,24.80
2018-07-05T03:29:01.543Z,24.80
2018-07-05T03:31:41.369Z,24.70
2018-07-05T03:34:20.842Z,24.70
2018-07-05T03:37:00.987Z,24.80
2018-07-05T03:39:40.712Z,24.70
2018-07-05T03:42:20.414Z,24.80
2018-07-05T03:44:59.931Z,24.70
2018-07-05T03:47:39.504Z,24.70
2018-07-05T03:50:19.275Z,24.70
2018-07-05T03:52:59.000Z,24.80
2018-07-05T03:55:38.571Z,24.80
2018-07-05T03:58:18.174Z,24.70
2018-07-05T04:00:57.974Z,24.80
2018-07-05T04:03:37.535Z,24.80
2018-07-05T04:06:17.267Z,24.80
2018-07-05T04:08:57.127Z,24.80
2018-07-05T04:11:36.719Z,24.80
2018-07-05T04:14:16.204Z,24.80
2018-07-05T04:16:56.030Z,24.80
2018-07-05T04:19:39.951Z,24.80
2018-07-05T04:22:19.675Z,24.80
2018-07-05T04:24:59.324Z,24.80
2018-07-05T04:27:38.873Z,24.80
2018-07-05T04:30:18.555Z,24.80
2018-07-05T04:32:58.347Z,24.80
2018-07-05T04:35:38.075Z,24.90
2018-07-05T04:38:17.798Z,24.90
2018-07-05T04:40:57.795Z,24.90
2018-07-05T04:43:37.444Z,24.80
2018-07-05T04:46:17.223Z,24.90
2018-07-05T04:48:56.847Z,24.90
2018-07-05T04:51:37.048Z,24.90
2018-07-05T04:54:16.635Z,24.90
2018-07-05T04:56:56.149Z,24.90
2018-07-05T04:59:35.915Z,24.90
2018-07-05T05:02:15.679Z,25.00
2018-07-05T05:04:55.500Z,25.00
2018-07-05T05:07:35.060Z,25.00
2018-07-05T05:10:14.731Z,25.00
2018-07-05T05:12:57.910Z,25.00
2018-07-05T05:15:37.983Z,25.00
2018-07-05T05:18:17.707Z,25.10
2018-07-05T05:20:57.498Z,25.10
2018-07-05T05:23:37.323Z,25.10
2018-07-05T05:26:16.871Z,25.20
2018-07-05T05:28:56.705Z,25.20
2018-07-05T05:31:36.245Z,25.20
2018-07-05T05:34:15.997Z,25.30
2018-07-05T05:36:55.594Z,25.30
2018-07-05T05:39:35.179Z,25.40
2018-07-05T05:42:14.912Z,25.40
2018-07-05T05:44:54.690Z,25.50
2018-07-05T05:47:34.452Z,25.50
2018-07-05T05:50:14.102Z,25.60
2018-07-05T05:52:53.825Z,25.60
2018-07-05T05:55:33.763Z,25.60
2018-07-05T05:58:13.383Z,25.70
2018-07-05T06:00:53.049Z,25.70
2018-07-05T06:03:32.730Z,25.70
2018-07-05T06:06:12.555Z,25.80
2018-07-05T06:08:52.108Z,25.80
2018-07-05T06:11:32.327Z,25.90
2018-07-05T06:14:12.358Z,25.90
2018-07-05T06:16:52.467Z,26.00
2018-07-05T06:19:32.189Z,26.00
2018-07-05T06:22:12.083Z,26.00
2018-07-05T06:24:51.539Z,26.00
2018-07-05T06:27:31.414Z,26.10
2018-07-05T06:30:11.073Z,26.20
2018-07-05T06:32:50.960Z,26.20
2018-07-05T06:35:30.966Z,26.40
2018-07-05T06:38:10.574Z,26.40
2018-07-05T06:40:50.198Z,26.50
2018-07-05T06:43:30.021Z,26.60
2018-07-05T06:46:09.491Z,26.70
2018-07-05T06:48:49.136Z,26.80
2018-07-05T06:51:28.762Z,26.90
2018-07-05T06:54:08.609Z,27.00
2018-07-05T06:56:48.283Z,27.10
2018-07-05T07:02:01.629Z,27.30
2018-07-05T07:04:41.397Z,27.30
2018-07-05T07:07:21.193Z,27.40
2018-07-05T07:10:00.995Z,27.40
2018-07-05T07:12:40.608Z,27.50
2018-07-05T07:15:20.386Z,27.50
2018-07-05T07:17:59.927Z,27.60
2018-07-05T07:20:39.747Z,27.60
2018-07-05T07:23:19.491Z,27.70
2018-07-05T07:25:59.114Z,27.70
2018-07-05T07:28:39.029Z,27.80
2018-07-05T07:31:18.805Z,27.80
2018-07-05T07:33:58.522Z,27.80
2018-07-05T07:36:38.240Z,27.90
2018-07-05T07:39:17.944Z,27.90
2018-07-05T07:41:48.487Z,28.00
2018-07-05T07:44:16.807Z,28.00
2018-07-05T07:46:44.480Z,28.00
2018-07-05T07:49:11.775Z,28.10
2018-07-05T07:51:39.063Z,28.10
2018-07-05T07:54:06.330Z,28.20
2018-07-05T07:56:33.594Z,28.30
2018-07-05T07:59:00.886Z,28.30
2018-07-05T08:01:28.179Z,28.40
2018-07-05T08:03:55.427Z,28.40
2018-07-05T08:06:22.724Z,28.50
2018-07-05T08:08:49.946Z,28.50
2018-07-05T08:11:17.211Z,28.60
2018-07-05T08:13:44.550Z,28.70
2018-07-05T08:16:11.821Z,28.80
2018-07-05T08:18:39.194Z,28.90
2018-07-05T08:21:06.535Z,29.00
2018-07-05T08:23:33.787Z,29.00
2018-07-05T08:26:01.051Z,29.10
2018-07-05T08:30:55.999Z,29.30
2018-07-05T08:33:23.304Z,29.40
2018-07-05T08:35:50.547Z,29.40
2018-07-05T08:38:17.895Z,29.50
2018-07-05T08:40:45.264Z,29.60
2018-07-05T08:43:12.560Z,29.70
2018-07-05T08:48:07.368Z,29.80
2018-07-05T08:50:34.608Z,29.80
2018-07-05T08:53:01.893Z,29.90
2018-07-05T08:55:29.143Z,29.90
2018-07-05T08:57:56.574Z,30.10
2018-07-05T09:00:23.855Z,30.10
2018-07-05T09:02:51.162Z,30.20
2018-07-05T09:05:18.486Z,30.30
2018-07-05T09:07:45.735Z,30.40
2018-07-05T09:10:13.005Z,30.50
2018-07-05T09:12:40.285Z,30.60
2018-07-05T09:15:07.542Z,30.70
2018-07-05T09:17:34.884Z,30.90
2018-07-05T09:20:02.199Z,31.00
2018-07-05T09:22:29.500Z,31.10
2018-07-05T09:24:56.835Z,31.20
2018-07-05T09:27:24.096Z,31.30
2018-07-05T09:29:51.402Z,31.40
2018-07-05T09:32:18.642Z,31.50
2018-07-05T09:34:46.003Z,31.60
2018-07-05T09:37:13.444Z,31.80
2018-07-05T09:39:40.641Z,31.80
2018-07-05T09:42:08.084Z,32.00
2018-07-05T09:44:35.414Z,32.00
2018-07-05T09:47:02.776Z,32.10
2018-07-05T09:49:30.154Z,32.20
2018-07-05T09:51:57.499Z,32.20
2018-07-05T09:54:24.763Z,32.20
2018-07-05T09:56:52.024Z,32.20
2018-07-05T09:59:19.340Z,32.20
2018-07-05T10:01:46.723Z,32.20
2018-07-05T10:04:14.172Z,32.20
2018-07-05T10:06:41.502Z,32.10
2018-07-05T10:09:08.751Z,32.10
2018-07-05T10:11:36.014Z,32.00
2018-07-05T10:14:03.259Z,32.00
2018-07-05T10:16:30.526Z,32.00
2018-07-05T10:18:58.080Z,32.00
2018-07-05T10:21:25.389Z,31.90
2018-07-05T10:23:52.634Z,31.90
2018-07-05T10:26:19.895Z,31.90
2018-07-05T10:28:59.420Z,31.90
2018-07-05T10:31:39.554Z,31.90
2018-07-05T10:34:06.869Z,31.90
2018-07-05T10:36:34.139Z,31.90
2018-07-05T10:39:01.392Z,31.80
2018-07-05T10:41:41.146Z,31.80
2018-07-05T10:44:20.792Z,31.90
2018-07-05T10:47:00.495Z,31.90
2018-07-05T10:49:40.411Z,31.90
2018-07-05T10:52:20.277Z,31.90
2018-07-05T10:54:59.972Z,31.90
2018-07-05T10:57:39.821Z,31.90
2018-07-05T11:00:19.504Z,31.90
2018-07-05T11:02:59.597Z,31.90
2018-07-05T11:05:39.736Z,32.00
2018-07-05T11:08:19.562Z,31.90
2018-07-05T11:13:33.154Z,32.00
2018-07-05T11:16:12.764Z,32.10
2018-07-05T11:18:52.381Z,32.20
2018-07-05T11:21:31.948Z,32.20
2018-07-05T11:24:11.703Z,32.30
2018-07-05T11:26:51.431Z,32.40
2018-07-05T11:29:31.226Z,32.50
2018-07-05T11:32:11.218Z,32.60
2018-07-05T11:34:50.810Z,32.70
2018-07-05T11:37:30.543Z,32.80
2018-07-05T11:40:10.336Z,32.90
2018-07-05T11:42:50.045Z,33.00
2018-07-05T11:45:29.654Z,33.10
2018-07-05T11:50:43.201Z,33.20
2018-07-05T11:53:22.756Z,33.30
2018-07-05T11:56:02.560Z,33.40
2018-07-05T11:58:42.169Z,33.40
2018-07-05T12:01:21.737Z,33.40
2018-07-05T12:04:01.365Z,33.40
2018-07-05T12:06:41.036Z,33.40
2018-07-05T12:09:20.840Z,33.40
2018-07-05T12:12:00.459Z,33.40
2018-07-05T12:14:40.105Z,33.50
2018-07-05T12:17:19.827Z,33.50
2018-07-05T12:19:59.698Z,33.50
2018-07-05T12:22:39.483Z,33.60
2018-07-05T12:25:19.002Z,33.60
2018-07-05T12:27:58.785Z,33.50
2018-07-05T12:30:38.479Z,33.50
2018-07-05T12:33:18.331Z,33.40
2018-07-05T12:35:57.824Z,33.30
2018-07-05T12:38:37.641Z,33.30
2018-07-05T12:41:17.319Z,33.20
2018-07-05T12:43:56.982Z,33.20
2018-07-05T12:46:36.659Z,33.10
2018-07-05T12:49:16.467Z,33.10
2018-07-05T12:51:56.250Z,33.20
2018-07-05T12:55:06.866Z,33.10
2018-07-05T12:57:46.505Z,33.20
2018-07-05T13:00:26.146Z,33.20
2018-07-05T13:03:05.662Z,33.10
2018-07-05T13:05:45.544Z,33.20
2018-07-05T13:08:25.181Z,33.20
2018-07-05T13:11:04.869Z,33.10
2018-07-05T13:13:44.585Z,33.20
2018-07-05T13:18:59.092Z,33.10
2018-07-05T13:21:40.026Z,33.20
2018-07-05T13:24:19.908Z,33.20
2018-07-05T13:26:59.656Z,33.10
2018-07-05T13:29:39.496Z,33.10
2018-07-05T13:32:19.219Z,33.10
2018-07-05T13:34:58.973Z,33.00
2018-07-05T13:37:38.584Z,33.00
2018-07-05T13:40:18.166Z,33.00
2018-07-05T13:42:57.886Z,33.00
2018-07-05T13:45:37.558Z,32.90
2018-07-05T13:48:17.415Z,32.90
2018-07-05T13:50:57.329Z,32.80
2018-07-05T13:53:37.407Z,32.80
2018-07-05T13:56:17.099Z,32.80
2018-07-05T13:58:56.826Z,32.70
2018-07-05T14:01:36.439Z,32.70
2018-07-05T14:04:16.039Z,32.60
2018-07-05T14:06:55.628Z,32.50
2018-07-05T14:09:35.306Z,32.50
2018-07-05T14:12:14.965Z,32.40
2018-07-05T14:14:54.780Z,32.40
2018-07-05T14:17:34.491Z,32.30
2018-07-05T14:20:14.155Z,32.20
2018-07-05T14:22:53.858Z,32.20
2018-07-05T14:25:33.627Z,32.10
2018-07-05T14:28:13.263Z,32.00
2018-07-05T14:30:52.803Z,32.00
2018-07-05T14:33:32.668Z,32.00
2018-07-05T14:36:12.198Z,31.90
2018-07-05T14:38:51.944Z,31.90
2018-07-05T14:41:31.742Z,31.90
2018-07-05T14:44:11.616Z,31.80
2018-07-05T14:46:51.308Z,31.80
2018-07-05T14:49:30.999Z,31.80
2018-07-05T14:52:10.790Z,31.70
2018-07-05T14:54:50.459Z,31.70
2018-07-05T14:57:30.305Z,31.70
2018-07-05T15:00:10.075Z,31.70
2018-07-05T15:02:49.527Z,31.70
2018-07-05T15:05:29.188Z,31.70
2018-07-05T15:08:09.039Z,31.70
2018-07-05T15:10:48.631Z,31.70
2018-07-05T15:13:28.211Z,31.70
2018-07-05T15:16:07.913Z,31.70
2018-07-05T15:18:47.715Z,31.60
2018-07-05T15:21:27.444Z,31.70
2018-07-05T15:24:07.129Z,31.70
2018-07-05T15:26:46.799Z,31.60
2018-07-05T15:29:26.569Z,31.60
2018-07-05T15:32:06.320Z,31.60
2018-07-05T15:34:46.068Z,31.60
2018-07-05T15:37:25.954Z,31.60
2018-07-05T15:40:05.622Z,31.60
2018-07-05T15:42:45.255Z,31.60
2018-07-05T15:45:25.044Z,31.50
2018-07-05T15:48:04.761Z,31.60
2018-07-05T15:50:44.745Z,31.60
2018-07-05T15:53:24.569Z,31.50
2018-07-05T15:56:04.379Z,31.50
2018-07-05T15:58:44.130Z,31.50
2018-07-05T16:01:23.707Z,31.50
2018-07-05T16:04:03.276Z,31.50
2018-07-05T16:06:43.131Z,31.50
2018-07-05T16:09:23.119Z,31.50
2018-07-05T16:12:02.963Z,31.40
2018-07-05T16:14:42.468Z,31.40
2018-07-05T16:17:22.168Z,31.40
2018-07-05T16:20:01.883Z,31.40
2018-07-05T16:22:41.603Z,31.40
2018-07-05T16:25:21.260Z,31.40
2018-07-05T16:28:01.022Z,31.30
2018-07-05T16:30:40.954Z,31.30
2018-07-05T16:33:20.607Z,31.30
2018-07-05T16:36:00.223Z,31.30
2018-07-05T16:38:39.772Z,31.30
2018-07-05T16:41:19.481Z,31.30
2018-07-05T16:43:59.266Z,31.30
2018-07-05T16:46:38.973Z,31.20
2018-07-05T16:49:18.401Z,31.20
2018-07-05T16:51:57.998Z,31.20
2018-07-05T16:54:37.705Z,31.20
2018-07-05T16:57:17.347Z,31.20
2018-07-05T16:59:57.140Z,31.20
2018-07-05T17:02:37.019Z,31.10
2018-07-05T17:05:16.803Z,31.10
2018-07-05T17:07:56.451Z,31.10
2018-07-05T17:10:36.145Z,31.10
2018-07-05T17:13:15.972Z,31.10
2018-07-05T17:15:55.745Z,31.10
2018-07-05T17:18:35.618Z,31.00
2018-07-05T17:21:15.359Z,31.00
2018-07-05T17:23:55.139Z,31.00
2018-07-05T17:26:34.916Z,31.00
2018-07-05T17:29:14.619Z,31.00
2018-07-05T17:31:54.794Z,31.00
2018-07-05T17:34:34.400Z,30.90
2018-07-05T17:37:14.202Z,30.90
2018-07-05T17:39:54.021Z,30.90
2018-07-05T17:42:33.895Z,30.90
2018-07-05T17:47:49.075Z,30.80
2018-07-05T17:53:02.558Z,30.80
2018-07-05T17:55:42.339Z,30.80
2018-07-05T17:58:21.847Z,30.80
2018-07-05T18:01:01.556Z,30.70
2018-07-05T18:03:41.271Z,30.70
2018-07-05T18:06:21.108Z,30.70
2018-07-05T18:09:00.912Z,30.60
2018-07-05T18:11:40.727Z,30.60
2018-07-05T18:14:20.421Z,30.60
2018-07-05T18:17:00.132Z,30.60
2018-07-05T18:19:39.946Z,30.50
2018-07-05T18:22:19.671Z,30.50
2018-07-05T18:24:59.356Z,30.50
2018-07-05T18:27:39.027Z,30.50
2018-07-05T18:30:18.672Z,30.50
2018-07-05T18:32:58.782Z,30.40
2018-07-05T18:35:38.536Z,30.40
2018-07-05T18:38:18.210Z,30.40
2018-07-05T18:40:58.322Z,30.40
2018-07-05T18:43:38.086Z,30.40
2018-07-05T18:46:17.831Z,30.30
2018-07-05T18:48:57.432Z,30.30
2018-07-05T18:51:37.244Z,30.30
2018-07-05T18:54:16.896Z,30.20
2018-07-05T18:56:56.712Z,30.20
2018-07-05T18:59:36.262Z,30.20
2018-07-05T19:02:15.852Z,30.10
2018-07-05T19:04:55.437Z,30.10
2018-07-05T19:07:35.047Z,30.10
2018-07-05T19:10:14.604Z,30.00
2018-07-05T19:12:54.325Z,30.00
2018-07-05T19:15:33.920Z,30.00
2018-07-05T19:18:13.671Z,29.90
2018-07-05T19:20:53.439Z,29.90
2018-07-05T19:23:33.245Z,29.90
2018-07-05T19:26:13.071Z,29.90
2018-07-05T19:28:52.916Z,29.90
2018-07-05T19:31:32.555Z,29.90
2018-07-05T19:34:12.312Z,29.80
2018-07-05T19:36:52.133Z,29.80
2018-07-05T19:39:31.602Z,29.80
2018-07-05T19:42:11.290Z,29.80
2018-07-05T19:44:51.957Z,29.80
2018-07-05T19:47:31.507Z,29.70
2018-07-05T19:50:11.312Z,29.70
2018-07-05T19:52:51.214Z,29.70
2018-07-05T19:55:31.490Z,29.70
2018-07-05T19:58:11.556Z,29.70
2018-07-05T20:00:51.186Z,29.70
2018-07-05T20:03:30.924Z,29.70
2018-07-05T20:06:10.584Z,29.60
2018-07-05T20:08:50.553Z,29.60
2018-07-05T20:11:30.200Z,29.60
2018-07-05T20:14:09.838Z,29.60
2018-07-05T20:17:52.604Z,29.60
2018-07-05T20:20:32.341Z,29.60
2018-07-05T20:23:12.205Z,29.50
2018-07-05T20:25:53.146Z,29.40
2018-07-05T20:28:33.308Z,29.40
2018-07-05T20:31:13.095Z,29.40
2018-07-05T20:33:52.828Z,29.30
2018-07-05T20:36:32.359Z,29.30
2018-07-05T20:39:12.059Z,29.30
2018-07-05T20:41:52.011Z,29.30
2018-07-05T20:44:31.783Z,29.30
2018-07-05T20:47:11.851Z,29.30
2018-07-05T20:49:51.463Z,29.30
2018-07-05T20:52:31.363Z,29.30
2018-07-05T20:55:11.084Z,29.30
2018-07-05T20:57:50.865Z,29.20
2018-07-05T21:00:30.567Z,29.20
2018-07-05T21:03:10.537Z,29.30
2018-07-05T21:05:50.162Z,29.20
2018-07-05T21:08:29.665Z,29.20
2018-07-05T21:11:09.536Z,29.20
2018-07-05T21:13:49.195Z,29.20
2018-07-05T21:16:28.991Z,29.20
2018-07-05T21:19:08.772Z,29.20
2018-07-05T21:21:48.441Z,29.10
2018-07-05T21:24:28.376Z,29.10
2018-07-05T21:27:07.952Z,29.10
2018-07-05T21:29:47.803Z,29.10
2018-07-05T21:32:27.567Z,29.00
2018-07-05T21:35:07.354Z,28.90
2018-07-05T21:37:47.047Z,28.90
2018-07-05T21:40:26.731Z,28.90
2018-07-05T21:43:06.544Z,28.80
2018-07-05T21:45:46.178Z,28.80
2018-07-05T21:48:25.903Z,28.70
2018-07-05T21:51:05.566Z,28.70
2018-07-05T21:53:45.301Z,28.60
2018-07-05T21:56:25.104Z,28.50
2018-07-05T21:59:04.949Z,28.50
2018-07-05T22:01:44.653Z,28.50
2018-07-05T22:06:58.783Z,28.40
2018-07-05T22:09:38.420Z,28.40
2018-07-05T22:12:18.198Z,28.40
2018-07-05T22:14:57.992Z,28.30
2018-07-05T22:17:43.253Z,28.20
2018-07-05T22:20:28.333Z,28.20
2018-07-05T22:23:13.436Z,28.10
2018-07-05T22:25:58.551Z,28.10
2018-07-05T22:29:41.364Z,28.00
2018-07-05T22:32:20.907Z,28.00
2018-07-05T22:35:00.625Z,27.90
2018-07-05T22:37:40.450Z,27.80
2018-07-05T22:40:20.205Z,27.70
2018-07-05T22:42:59.827Z,27.70
2018-07-05T22:45:39.820Z,27.70
2018-07-05T22:48:19.708Z,27.70
2018-07-05T22:50:59.407Z,27.70
2018-07-05T22:53:39.051Z,27.70
2018-07-05T22:56:18.692Z,27.60
2018-07-05T22:58:58.416Z,27.60
2018-07-05T23:01:38.195Z,27.60
2018-07-05T23:04:18.009Z,27.60
2018-07-05T23:06:57.679Z,27.50
2018-07-05T23:09:37.533Z,27.50
2018-07-05T23:12:17.352Z,27.50
2018-07-05T23:14:57.143Z,27.40
2018-07-05T23:17:36.823Z,27.40
2018-07-05T23:20:16.517Z,27.40
2018-07-05T23:22:56.152Z,27.40
2018-07-05T23:25:35.967Z,27.30
2018-07-05T23:28:15.682Z,27.30
2018-07-05T23:30:55.489Z,27.30
2018-07-05T23:33:35.293Z,27.30
2018-07-05T23:36:15.085Z,27.20
2018-07-05T23:38:54.582Z,27.20
2018-07-05T23:41:34.347Z,27.20
2018-07-05T23:44:14.104Z,27.20
2018-07-05T23:46:53.752Z,27.20
2018-07-05T23:49:33.426Z,27.20
2018-07-05T23:52:12.975Z,27.10
2018-07-05T23:54:52.614Z,27.10
2018-07-05T23:57:32.288Z,27.10
